Meath Environmental Platform

Observations for Trim Market St

Time AQI Temp °C Hum % Pres Pa CO μg/m³ H₂S μg/m³ NO μg/m³ NO₂ μg/m³ O₃ μg/m³ SO₂ μg/m³ PM1 μg/m³ PM2.5 μg/m³ PM10 μg/m³
Sunday 23 August 2026
11:52 2 22.9 39 65,517 0.07 0 1.34 6.85 68.96 0 0 2.92 3.21
11:50 2 23 39 65,481 0.04 0 1.26 7.09 69.41 0 0 2.38 2.62
11:44 2 22.9 40 65,491 0.1 0 1.22 7.19 70.13 0 0 2.9 3.19
11:43 2 23 40 65,495 0.64 0 1.18 7.17 71.9 0 0 3.43 3.78
11:42 2 22.9 40 65,499 0.59 0 1.25 7.29 70.04 0 0 3.43 3.77
11:34 2 22.7 40 65,437 0.13 0 1.36 12.08 68.1 0 0.71 3.93 4.33
11:31 2 22.7 40 65,485 0.16 0 1.74 6.74 68.85 0 0 3.4 3.74
11:30 2 22.7 40 65,491 0.01 0 1.72 7.14 69.96 0 0 2.87 3.16
11:29 2 22.7 40 65,497 0.06 0 1.74 6.79 69.08 0 0 3.4 3.74
11:28 2 22.6 40 65,505 0.09 0 1.61 6.6 69.04 0 0.71 2.88 3.17
11:27 2 22.6 40 65,487 0.13 0 1.68 8.36 65.78 0 0 2.87 3.16
11:26 2 22.6 40 65,466 0.2 0 1.73 8.61 67.13 0 0 2.34 2.58
11:25 2 22.6 40 65,491 0.58 0 1.72 14.23 65.71 0 0 2.34 2.57
11:24 2 22.6 40 65,495 0.25 0 1.61 13.89 61.53 0 0 2.34 2.57
11:23 2 22.6 40 65,509 0.06 0 1.71 5.69 68.6 0 0 2.86 3.15
11:22 2 22.6 40 65,491 0.09 0 1.71 6.56 69.39 0 0 2.86 3.15
11:21 2 22.6 40 65,469 0.32 0 1.66 11.25 65.27 0 0 2.33 2.57
11:20 2 22.6 40 65,464 1 0 1.68 14.8 62.97 0 0 2.33 2.57
11:19 2 22.6 40 65,464 0.47 0 1.57 9.81 66.5 0 0 2.86 3.15
11:18 2 22.5 40 65,460 0.04 0 1.26 6.43 68.92 0 0 2.86 3.15